Souder, Missouri
Current Conditions -  °F | °C
As of 6:53 AM on Friday 28 Nov 2014 (Local Time) from KBPK Reporting Station
Clear Clear  
Wind Chill: 26°   Ceiling: Unl
Heat Index: 32°   Visibility: 8mi
Dew Point: 27°   Wind: 7mph
Humidity: 82%   Direction: 160°SSE
Pressure: 30.25"   Gusts: NA
Location:  36.7438°N, 92.5205°W
Report Text: KBPK 281253Z AUTO 16006KT 8SM CLR 00/M03 A3025 RMK AO2 SLP249 T00001028
Loading
Personal Weather Stations






























Interactive Weather Map New forecast layout! Learn more

10-Day Weather Forecast

Advertisements
Track Severe Weather on mobile